sensor_id;sensor_type;location;lat;lon;timestamp;temperature;humidity
19781;DHT22;10050;55.492;13.506;2022-07-05T00:00:05;15.80;99.90
19781;DHT22;10050;55.492;13.506;2022-07-05T00:02:31;15.70;99.90
19781;DHT22;10050;55.492;13.506;2022-07-05T00:04:57;15.80;99.90
19781;DHT22;10050;55.492;13.506;2022-07-05T00:07:23;15.80;99.90
19781;DHT22;10050;55.492;13.506;2022-07-05T00:09:51;15.70;99.90
19781;DHT22;10050;55.492;13.506;2022-07-05T00:12:18;15.70;99.90
19781;DHT22;10050;55.492;13.506;2022-07-05T00:14:45;15.70;99.90
19781;DHT22;10050;55.492;13.506;2022-07-05T00:17:11;15.60;99.90
19781;DHT22;10050;55.492;13.506;2022-07-05T00:19:38;15.70;99.90
19781;DHT22;10050;55.492;13.506;2022-07-05T00:22:03;15.70;99.90
19781;DHT22;10050;55.492;13.506;2022-07-05T00:24:29;15.80;99.90
19781;DHT22;10050;55.492;13.506;2022-07-05T00:26:55;15.80;99.90
19781;DHT22;10050;55.492;13.506;2022-07-05T00:29:21;15.80;99.90
19781;DHT22;10050;55.492;13.506;2022-07-05T00:31:47;15.70;99.90
19781;DHT22;10050;55.492;13.506;2022-07-05T00:34:13;15.70;99.90
19781;DHT22;10050;55.492;13.506;2022-07-05T00:36:39;15.80;99.90
19781;DHT22;10050;55.492;13.506;2022-07-05T00:39:05;15.70;99.90
19781;DHT22;10050;55.492;13.506;2022-07-05T00:41:31;15.70;99.90
19781;DHT22;10050;55.492;13.506;2022-07-05T00:43:59;15.70;99.90
19781;DHT22;10050;55.492;13.506;2022-07-05T00:46:26;15.70;99.90
19781;DHT22;10050;55.492;13.506;2022-07-05T00:48:52;15.70;99.90
19781;DHT22;10050;55.492;13.506;2022-07-05T00:51:18;15.60;99.90
19781;DHT22;10050;55.492;13.506;2022-07-05T00:53:45;15.60;99.90
19781;DHT22;10050;55.492;13.506;2022-07-05T00:56:12;15.60;99.90
19781;DHT22;10050;55.492;13.506;2022-07-05T00:58:37;15.60;99.90
19781;DHT22;10050;55.492;13.506;2022-07-05T01:01:05;15.60;99.90
19781;DHT22;10050;55.492;13.506;2022-07-05T01:03:32;15.60;99.90
19781;DHT22;10050;55.492;13.506;2022-07-05T01:05:59;15.60;99.90
19781;DHT22;10050;55.492;13.506;2022-07-05T01:08:26;15.50;99.90
19781;DHT22;10050;55.492;13.506;2022-07-05T01:10:57;15.40;99.90
19781;DHT22;10050;55.492;13.506;2022-07-05T01:13:23;15.40;99.90
19781;DHT22;10050;55.492;13.506;2022-07-05T01:15:49;15.40;99.90
19781;DHT22;10050;55.492;13.506;2022-07-05T01:18:15;15.30;99.90
19781;DHT22;10050;55.492;13.506;2022-07-05T01:20:42;15.30;99.90
19781;DHT22;10050;55.492;13.506;2022-07-05T01:23:08;15.30;99.90
19781;DHT22;10050;55.492;13.506;2022-07-05T01:25:34;15.30;99.90
19781;DHT22;10050;55.492;13.506;2022-07-05T01:28:00;15.30;99.90
19781;DHT22;10050;55.492;13.506;2022-07-05T01:30:28;15.30;99.90
19781;DHT22;10050;55.492;13.506;2022-07-05T01:32:53;15.20;99.90
19781;DHT22;10050;55.492;13.506;2022-07-05T01:35:19;15.10;99.90
19781;DHT22;10050;55.492;13.506;2022-07-05T01:37:49;15.10;99.90
19781;DHT22;10050;55.492;13.506;2022-07-05T01:40:16;15.10;99.90
19781;DHT22;10050;55.492;13.506;2022-07-05T01:42:42;15.00;99.90
19781;DHT22;10050;55.492;13.506;2022-07-05T01:45:08;15.00;99.90
19781;DHT22;10050;55.492;13.506;2022-07-05T01:47:40;15.00;99.90
19781;DHT22;10050;55.492;13.506;2022-07-05T01:50:07;15.00;99.90
19781;DHT22;10050;55.492;13.506;2022-07-05T01:52:36;15.00;99.90
19781;DHT22;10050;55.492;13.506;2022-07-05T01:55:04;15.00;99.90
19781;DHT22;10050;55.492;13.506;2022-07-05T01:57:30;15.00;99.90
19781;DHT22;10050;55.492;13.506;2022-07-05T01:59:55;14.90;99.90
19781;DHT22;10050;55.492;13.506;2022-07-05T02:02:21;14.90;99.90
19781;DHT22;10050;55.492;13.506;2022-07-05T02:04:47;14.90;99.90
19781;DHT22;10050;55.492;13.506;2022-07-05T02:07:12;14.90;99.90
19781;DHT22;10050;55.492;13.506;2022-07-05T02:09:38;14.90;99.90
19781;DHT22;10050;55.492;13.506;2022-07-05T02:12:05;14.80;99.90
19781;DHT22;10050;55.492;13.506;2022-07-05T02:14:31;14.80;99.90
19781;DHT22;10050;55.492;13.506;2022-07-05T02:16:57;14.80;99.90
19781;DHT22;10050;55.492;13.506;2022-07-05T02:19:22;14.80;99.90
19781;DHT22;10050;55.492;13.506;2022-07-05T02:21:49;14.80;99.90
19781;DHT22;10050;55.492;13.506;2022-07-05T02:24:14;14.80;99.90
19781;DHT22;10050;55.492;13.506;2022-07-05T02:26:40;14.80;99.90
19781;DHT22;10050;55.492;13.506;2022-07-05T02:29:06;14.80;99.90
19781;DHT22;10050;55.492;13.506;2022-07-05T02:31:32;14.70;99.90
19781;DHT22;10050;55.492;13.506;2022-07-05T02:33:57;14.70;99.90
19781;DHT22;10050;55.492;13.506;2022-07-05T02:36:23;14.70;99.90
19781;DHT22;10050;55.492;13.506;2022-07-05T02:38:50;14.70;99.90
19781;DHT22;10050;55.492;13.506;2022-07-05T02:41:15;14.70;99.90
19781;DHT22;10050;55.492;13.506;2022-07-05T02:43:41;14.60;99.90
19781;DHT22;10050;55.492;13.506;2022-07-05T02:46:07;14.50;99.90
19781;DHT22;10050;55.492;13.506;2022-07-05T02:48:35;14.50;99.90
19781;DHT22;10050;55.492;13.506;2022-07-05T02:51:01;14.40;99.90
19781;DHT22;10050;55.492;13.506;2022-07-05T02:53:27;14.50;99.90
19781;DHT22;10050;55.492;13.506;2022-07-05T02:55:53;14.50;99.90
19781;DHT22;10050;55.492;13.506;2022-07-05T02:58:19;14.50;99.90
19781;DHT22;10050;55.492;13.506;2022-07-05T03:00:46;14.60;99.90
19781;DHT22;10050;55.492;13.506;2022-07-05T03:03:13;14.60;99.90
19781;DHT22;10050;55.492;13.506;2022-07-05T03:05:39;14.60;99.90
19781;DHT22;10050;55.492;13.506;2022-07-05T03:08:05;14.60;99.90
19781;DHT22;10050;55.492;13.506;2022-07-05T03:10:30;14.60;99.90
19781;DHT22;10050;55.492;13.506;2022-07-05T03:12:56;14.60;99.90
19781;DHT22;10050;55.492;13.506;2022-07-05T03:15:22;14.60;99.90
19781;DHT22;10050;55.492;13.506;2022-07-05T03:17:47;14.70;99.90
19781;DHT22;10050;55.492;13.506;2022-07-05T03:20:13;14.70;99.90
19781;DHT22;10050;55.492;13.506;2022-07-05T03:22:39;14.70;99.90
19781;DHT22;10050;55.492;13.506;2022-07-05T03:25:05;14.80;99.90
19781;DHT22;10050;55.492;13.506;2022-07-05T03:27:31;14.80;99.90
19781;DHT22;10050;55.492;13.506;2022-07-05T03:29:57;14.80;99.90
19781;DHT22;10050;55.492;13.506;2022-07-05T03:32:22;14.80;99.90
19781;DHT22;10050;55.492;13.506;2022-07-05T03:34:48;14.90;99.90
19781;DHT22;10050;55.492;13.506;2022-07-05T03:37:13;15.00;99.90
19781;DHT22;10050;55.492;13.506;2022-07-05T03:39:39;15.10;99.90
19781;DHT22;10050;55.492;13.506;2022-07-05T03:42:05;15.10;99.90
19781;DHT22;10050;55.492;13.506;2022-07-05T03:44:31;15.10;99.90
19781;DHT22;10050;55.492;13.506;2022-07-05T03:46:58;15.10;99.90
19781;DHT22;10050;55.492;13.506;2022-07-05T03:49:25;15.00;99.90
19781;DHT22;10050;55.492;13.506;2022-07-05T03:51:50;15.00;99.90
19781;DHT22;10050;55.492;13.506;2022-07-05T03:54:16;15.00;99.90
19781;DHT22;10050;55.492;13.506;2022-07-05T03:56:42;15.00;99.90
19781;DHT22;10050;55.492;13.506;2022-07-05T03:59:07;15.00;99.90
19781;DHT22;10050;55.492;13.506;2022-07-05T04:01:33;15.00;99.90
19781;DHT22;10050;55.492;13.506;2022-07-05T04:03:59;15.00;99.90
19781;DHT22;10050;55.492;13.506;2022-07-05T04:06:25;15.00;99.90
19781;DHT22;10050;55.492;13.506;2022-07-05T04:08:50;15.00;99.90
19781;DHT22;10050;55.492;13.506;2022-07-05T04:11:16;15.10;99.90
19781;DHT22;10050;55.492;13.506;2022-07-05T04:13:42;15.10;99.90
19781;DHT22;10050;55.492;13.506;2022-07-05T04:16:08;15.10;99.90
19781;DHT22;10050;55.492;13.506;2022-07-05T04:18:34;15.10;99.90
19781;DHT22;10050;55.492;13.506;2022-07-05T04:21:00;15.20;99.90
19781;DHT22;10050;55.492;13.506;2022-07-05T04:23:25;15.30;99.90
19781;DHT22;10050;55.492;13.506;2022-07-05T04:25:51;15.40;99.90
19781;DHT22;10050;55.492;13.506;2022-07-05T04:28:17;15.50;99.90
19781;DHT22;10050;55.492;13.506;2022-07-05T04:30:42;15.50;99.90
19781;DHT22;10050;55.492;13.506;2022-07-05T04:33:08;15.50;99.90
19781;DHT22;10050;55.492;13.506;2022-07-05T04:35:34;15.50;99.90
19781;DHT22;10050;55.492;13.506;2022-07-05T04:37:59;15.60;99.90
19781;DHT22;10050;55.492;13.506;2022-07-05T04:40:25;15.50;99.90
19781;DHT22;10050;55.492;13.506;2022-07-05T04:42:51;15.50;99.90
19781;DHT22;10050;55.492;13.506;2022-07-05T04:45:16;15.60;99.90
19781;DHT22;10050;55.492;13.506;2022-07-05T04:47:42;15.60;99.90
19781;DHT22;10050;55.492;13.506;2022-07-05T04:50:08;15.70;99.90
19781;DHT22;10050;55.492;13.506;2022-07-05T04:52:34;15.70;99.90
19781;DHT22;10050;55.492;13.506;2022-07-05T04:55:00;15.80;99.90
19781;DHT22;10050;55.492;13.506;2022-07-05T04:57:26;15.90;99.90
19781;DHT22;10050;55.492;13.506;2022-07-05T04:59:51;16.00;99.90
19781;DHT22;10050;55.492;13.506;2022-07-05T05:02:17;16.00;99.90
19781;DHT22;10050;55.492;13.506;2022-07-05T05:04:42;16.20;99.90
19781;DHT22;10050;55.492;13.506;2022-07-05T05:07:08;16.30;99.90
19781;DHT22;10050;55.492;13.506;2022-07-05T05:09:34;16.30;99.90
19781;DHT22;10050;55.492;13.506;2022-07-05T05:12:00;16.40;99.90
19781;DHT22;10050;55.492;13.506;2022-07-05T05:14:25;16.50;99.90
19781;DHT22;10050;55.492;13.506;2022-07-05T05:16:51;16.50;99.90
19781;DHT22;10050;55.492;13.506;2022-07-05T05:19:16;16.70;99.90
19781;DHT22;10050;55.492;13.506;2022-07-05T05:21:42;16.70;99.90
19781;DHT22;10050;55.492;13.506;2022-07-05T05:24:08;16.80;99.90
19781;DHT22;10050;55.492;13.506;2022-07-05T05:26:33;17.00;99.90
19781;DHT22;10050;55.492;13.506;2022-07-05T05:28:59;17.30;99.90
19781;DHT22;10050;55.492;13.506;2022-07-05T05:31:25;17.50;99.90
19781;DHT22;10050;55.492;13.506;2022-07-05T05:33:50;17.50;99.90
19781;DHT22;10050;55.492;13.506;2022-07-05T05:36:16;17.30;99.90
19781;DHT22;10050;55.492;13.506;2022-07-05T05:38:42;17.20;99.90
19781;DHT22;10050;55.492;13.506;2022-07-05T05:41:07;17.20;99.90
19781;DHT22;10050;55.492;13.506;2022-07-05T05:43:33;17.10;99.90
19781;DHT22;10050;55.492;13.506;2022-07-05T05:45:59;17.20;99.90
19781;DHT22;10050;55.492;13.506;2022-07-05T05:48:25;17.30;99.90
19781;DHT22;10050;55.492;13.506;2022-07-05T05:50:51;17.50;99.90
19781;DHT22;10050;55.492;13.506;2022-07-05T05:53:17;17.60;99.90
19781;DHT22;10050;55.492;13.506;2022-07-05T05:55:42;17.60;99.90
19781;DHT22;10050;55.492;13.506;2022-07-05T05:58:22;17.70;99.90
19781;DHT22;10050;55.492;13.506;2022-07-05T06:00:49;17.70;99.90
19781;DHT22;10050;55.492;13.506;2022-07-05T06:03:18;17.70;99.90
19781;DHT22;10050;55.492;13.506;2022-07-05T06:05:44;17.70;99.90
19781;DHT22;10050;55.492;13.506;2022-07-05T06:08:10;17.80;99.90
19781;DHT22;10050;55.492;13.506;2022-07-05T06:10:37;17.80;99.90
19781;DHT22;10050;55.492;13.506;2022-07-05T06:13:07;17.90;99.90
19781;DHT22;10050;55.492;13.506;2022-07-05T06:15:34;17.90;99.90
19781;DHT22;10050;55.492;13.506;2022-07-05T06:18:00;17.90;99.90
19781;DHT22;10050;55.492;13.506;2022-07-05T06:20:28;17.80;99.90
19781;DHT22;10050;55.492;13.506;2022-07-05T06:22:55;17.70;99.90
19781;DHT22;10050;55.492;13.506;2022-07-05T06:25:21;17.70;99.90
19781;DHT22;10050;55.492;13.506;2022-07-05T06:27:49;17.60;99.90
19781;DHT22;10050;55.492;13.506;2022-07-05T06:30:20;17.50;99.90
19781;DHT22;10050;55.492;13.506;2022-07-05T06:32:47;17.50;99.90
19781;DHT22;10050;55.492;13.506;2022-07-05T06:35:13;17.40;99.90
19781;DHT22;10050;55.492;13.506;2022-07-05T06:37:53;17.50;99.90
19781;DHT22;10050;55.492;13.506;2022-07-05T06:40:24;17.50;99.90
19781;DHT22;10050;55.492;13.506;2022-07-05T06:42:51;17.40;99.90
19781;DHT22;10050;55.492;13.506;2022-07-05T06:45:17;17.40;99.90
19781;DHT22;10050;55.492;13.506;2022-07-05T06:47:43;17.50;99.90
19781;DHT22;10050;55.492;13.506;2022-07-05T06:50:09;17.50;99.90
19781;DHT22;10050;55.492;13.506;2022-07-05T06:52:36;17.70;99.90
19781;DHT22;10050;55.492;13.506;2022-07-05T06:55:02;18.10;99.90
19781;DHT22;10050;55.492;13.506;2022-07-05T06:57:28;18.50;99.90
19781;DHT22;10050;55.492;13.506;2022-07-05T06:59:54;19.20;99.90
19781;DHT22;10050;55.492;13.506;2022-07-05T07:02:20;19.80;99.90
19781;DHT22;10050;55.492;13.506;2022-07-05T07:04:47;20.20;99.90
19781;DHT22;10050;55.492;13.506;2022-07-05T07:07:13;20.50;99.90
19781;DHT22;10050;55.492;13.506;2022-07-05T07:09:58;20.70;99.90
19781;DHT22;10050;55.492;13.506;2022-07-05T07:12:24;20.50;99.90
19781;DHT22;10050;55.492;13.506;2022-07-05T07:14:50;20.10;99.90
19781;DHT22;10050;55.492;13.506;2022-07-05T07:17:16;19.90;99.90
19781;DHT22;10050;55.492;13.506;2022-07-05T07:19:42;19.70;99.90
19781;DHT22;10050;55.492;13.506;2022-07-05T07:22:07;19.50;99.90
19781;DHT22;10050;55.492;13.506;2022-07-05T07:24:33;19.50;99.90
19781;DHT22;10050;55.492;13.506;2022-07-05T07:26:59;19.50;99.90
19781;DHT22;10050;55.492;13.506;2022-07-05T07:29:33;19.60;99.90
19781;DHT22;10050;55.492;13.506;2022-07-05T07:32:00;19.60;99.90
19781;DHT22;10050;55.492;13.506;2022-07-05T07:34:27;19.30;99.90
19781;DHT22;10050;55.492;13.506;2022-07-05T07:36:53;19.10;99.90
19781;DHT22;10050;55.492;13.506;2022-07-05T07:39:19;19.10;99.90
19781;DHT22;10050;55.492;13.506;2022-07-05T07:41:45;19.00;99.90
19781;DHT22;10050;55.492;13.506;2022-07-05T07:44:11;18.90;99.90
19781;DHT22;10050;55.492;13.506;2022-07-05T07:46:36;18.90;99.90
19781;DHT22;10050;55.492;13.506;2022-07-05T07:49:04;19.20;99.90
19781;DHT22;10050;55.492;13.506;2022-07-05T07:51:30;19.20;99.90
19781;DHT22;10050;55.492;13.506;2022-07-05T07:53:56;19.30;99.90
19781;DHT22;10050;55.492;13.506;2022-07-05T07:56:22;19.90;99.90
19781;DHT22;10050;55.492;13.506;2022-07-05T07:58:47;20.80;99.90
19781;DHT22;10050;55.492;13.506;2022-07-05T08:01:13;21.30;99.90
19781;DHT22;10050;55.492;13.506;2022-07-05T08:03:43;21.70;99.90
19781;DHT22;10050;55.492;13.506;2022-07-05T08:06:09;21.80;99.90
19781;DHT22;10050;55.492;13.506;2022-07-05T08:08:40;22.10;99.90
19781;DHT22;10050;55.492;13.506;2022-07-05T08:11:06;22.60;99.90
19781;DHT22;10050;55.492;13.506;2022-07-05T08:13:33;22.30;99.90
19781;DHT22;10050;55.492;13.506;2022-07-05T08:15:59;21.60;99.90
19781;DHT22;10050;55.492;13.506;2022-07-05T08:18:25;21.90;99.90
19781;DHT22;10050;55.492;13.506;2022-07-05T08:21:10;22.70;99.90
19781;DHT22;10050;55.492;13.506;2022-07-05T08:23:54;23.10;99.90
19781;DHT22;10050;55.492;13.506;2022-07-05T08:26:20;23.00;99.90
19781;DHT22;10050;55.492;13.506;2022-07-05T08:28:46;22.90;99.90
19781;DHT22;10050;55.492;13.506;2022-07-05T08:31:11;22.50;99.90
19781;DHT22;10050;55.492;13.506;2022-07-05T08:33:37;22.70;99.90
19781;DHT22;10050;55.492;13.506;2022-07-05T08:36:03;22.40;99.90
19781;DHT22;10050;55.492;13.506;2022-07-05T08:38:29;22.60;99.90
19781;DHT22;10050;55.492;13.506;2022-07-05T08:40:56;22.40;99.90
19781;DHT22;10050;55.492;13.506;2022-07-05T08:43:25;21.80;99.90
19781;DHT22;10050;55.492;13.506;2022-07-05T08:45:53;21.50;99.90
19781;DHT22;10050;55.492;13.506;2022-07-05T08:48:20;21.20;99.90
19781;DHT22;10050;55.492;13.506;2022-07-05T08:50:47;20.90;99.90
19781;DHT22;10050;55.492;13.506;2022-07-05T08:53:21;21.30;99.90
19781;DHT22;10050;55.492;13.506;2022-07-05T08:55:46;22.10;99.90
19781;DHT22;10050;55.492;13.506;2022-07-05T08:58:12;22.00;99.90
19781;DHT22;10050;55.492;13.506;2022-07-05T09:00:43;22.60;99.90
19781;DHT22;10050;55.492;13.506;2022-07-05T09:03:09;23.40;99.90
19781;DHT22;10050;55.492;13.506;2022-07-05T09:05:45;23.80;99.90
19781;DHT22;10050;55.492;13.506;2022-07-05T09:08:14;24.40;99.90
19781;DHT22;10050;55.492;13.506;2022-07-05T09:10:42;23.80;99.90
19781;DHT22;10050;55.492;13.506;2022-07-05T09:13:08;23.30;99.90
19781;DHT22;10050;55.492;13.506;2022-07-05T09:15:34;22.50;99.90
19781;DHT22;10050;55.492;13.506;2022-07-05T09:18:03;22.10;99.90
19781;DHT22;10050;55.492;13.506;2022-07-05T09:20:29;21.80;99.90
19781;DHT22;10050;55.492;13.506;2022-07-05T09:22:55;21.50;99.90
19781;DHT22;10050;55.492;13.506;2022-07-05T09:25:26;21.10;99.90
19781;DHT22;10050;55.492;13.506;2022-07-05T09:28:04;20.90;99.90
19781;DHT22;10050;55.492;13.506;2022-07-05T09:30:38;20.40;99.90
19781;DHT22;10050;55.492;13.506;2022-07-05T09:33:12;20.10;99.90
19781;DHT22;10050;55.492;13.506;2022-07-05T09:35:43;19.80;99.90
19781;DHT22;10050;55.492;13.506;2022-07-05T09:38:19;19.70;99.90
19781;DHT22;10050;55.492;13.506;2022-07-05T09:40:49;19.90;99.90
19781;DHT22;10050;55.492;13.506;2022-07-05T09:43:17;20.00;99.90
19781;DHT22;10050;55.492;13.506;2022-07-05T09:45:57;19.90;99.90
19781;DHT22;10050;55.492;13.506;2022-07-05T09:48:24;19.80;99.90
19781;DHT22;10050;55.492;13.506;2022-07-05T09:50:50;20.00;99.90
19781;DHT22;10050;55.492;13.506;2022-07-05T09:53:18;20.20;99.90
19781;DHT22;10050;55.492;13.506;2022-07-05T09:56:02;21.20;99.90
19781;DHT22;10050;55.492;13.506;2022-07-05T09:58:28;22.10;99.90
19781;DHT22;10050;55.492;13.506;2022-07-05T10:00:54;22.00;99.90
19781;DHT22;10050;55.492;13.506;2022-07-05T10:03:19;21.70;99.90
19781;DHT22;10050;55.492;13.506;2022-07-05T10:05:45;21.50;99.90
19781;DHT22;10050;55.492;13.506;2022-07-05T10:08:12;21.60;99.90
19781;DHT22;10050;55.492;13.506;2022-07-05T10:10:39;21.70;99.90
19781;DHT22;10050;55.492;13.506;2022-07-05T10:13:06;22.00;99.90
19781;DHT22;10050;55.492;13.506;2022-07-05T10:15:34;22.20;99.90
19781;DHT22;10050;55.492;13.506;2022-07-05T10:18:03;22.10;99.90
19781;DHT22;10050;55.492;13.506;2022-07-05T10:20:41;22.00;99.90
19781;DHT22;10050;55.492;13.506;2022-07-05T10:23:11;22.60;99.90
19781;DHT22;10050;55.492;13.506;2022-07-05T10:25:38;22.80;99.90
19781;DHT22;10050;55.492;13.506;2022-07-05T10:28:05;22.60;99.90
19781;DHT22;10050;55.492;13.506;2022-07-05T10:30:32;22.10;99.90
19781;DHT22;10050;55.492;13.506;2022-07-05T10:32:59;21.80;99.90
19781;DHT22;10050;55.492;13.506;2022-07-05T10:35:27;21.50;99.90
19781;DHT22;10050;55.492;13.506;2022-07-05T10:37:53;21.50;99.90
19781;DHT22;10050;55.492;13.506;2022-07-05T10:40:19;21.40;99.90
19781;DHT22;10050;55.492;13.506;2022-07-05T10:42:52;21.50;99.90
19781;DHT22;10050;55.492;13.506;2022-07-05T10:45:39;21.60;99.90
19781;DHT22;10050;55.492;13.506;2022-07-05T10:53:24;21.70;99.90
19781;DHT22;10050;55.492;13.506;2022-07-05T10:58:37;21.40;99.90
19781;DHT22;10050;55.492;13.506;2022-07-05T11:06:22;21.40;99.90
19781;DHT22;10050;55.492;13.506;2022-07-05T11:11:34;21.20;99.90
19781;DHT22;10050;55.492;13.506;2022-07-05T11:14:02;21.30;99.90
19781;DHT22;10050;55.492;13.506;2022-07-05T11:16:29;21.50;99.90
19781;DHT22;10050;55.492;13.506;2022-07-05T11:19:11;21.90;99.90
19781;DHT22;10050;55.492;13.506;2022-07-05T11:21:39;22.30;99.90
19781;DHT22;10050;55.492;13.506;2022-07-05T11:26:44;22.90;99.90
19781;DHT22;10050;55.492;13.506;2022-07-05T11:32:12;23.20;99.90
19781;DHT22;10050;55.492;13.506;2022-07-05T11:34:42;23.50;99.90
19781;DHT22;10050;55.492;13.506;2022-07-05T11:39:40;23.30;99.90
19781;DHT22;10050;55.492;13.506;2022-07-05T11:42:06;23.60;99.90
19781;DHT22;10050;55.492;13.506;2022-07-05T11:44:34;23.50;99.90
19781;DHT22;10050;55.492;13.506;2022-07-05T11:47:00;23.30;99.90
19781;DHT22;10050;55.492;13.506;2022-07-05T11:49:26;23.30;99.90
19781;DHT22;10050;55.492;13.506;2022-07-05T11:52:01;23.30;99.90
19781;DHT22;10050;55.492;13.506;2022-07-05T11:54:32;23.40;99.90
19781;DHT22;10050;55.492;13.506;2022-07-05T11:56:59;23.40;99.90
19781;DHT22;10050;55.492;13.506;2022-07-05T11:59:26;23.40;99.90
19781;DHT22;10050;55.492;13.506;2022-07-05T12:01:53;23.60;99.90
19781;DHT22;10050;55.492;13.506;2022-07-05T12:04:26;24.10;99.90
19781;DHT22;10050;55.492;13.506;2022-07-05T12:06:52;24.00;99.90
19781;DHT22;10050;55.492;13.506;2022-07-05T12:09:29;23.90;99.90
19781;DHT22;10050;55.492;13.506;2022-07-05T12:12:20;23.50;99.90
19781;DHT22;10050;55.492;13.506;2022-07-05T12:15:06;22.80;99.90
19781;DHT22;10050;55.492;13.506;2022-07-05T12:17:34;23.20;99.90
19781;DHT22;10050;55.492;13.506;2022-07-05T12:20:00;23.20;99.90
19781;DHT22;10050;55.492;13.506;2022-07-05T12:22:36;22.80;99.90
19781;DHT22;10050;55.492;13.506;2022-07-05T12:25:04;22.30;99.90
19781;DHT22;10050;55.492;13.506;2022-07-05T12:27:32;22.00;99.90
19781;DHT22;10050;55.492;13.506;2022-07-05T12:29:58;22.00;99.90
19781;DHT22;10050;55.492;13.506;2022-07-05T12:32:24;22.10;99.90
19781;DHT22;10050;55.492;13.506;2022-07-05T12:34:50;22.00;99.90
19781;DHT22;10050;55.492;13.506;2022-07-05T12:37:26;21.90;99.90
19781;DHT22;10050;55.492;13.506;2022-07-05T12:40:08;21.60;99.90
19781;DHT22;10050;55.492;13.506;2022-07-05T12:42:37;21.10;99.90
19781;DHT22;10050;55.492;13.506;2022-07-05T12:45:12;21.00;99.90
19781;DHT22;10050;55.492;13.506;2022-07-05T12:47:51;21.20;99.90
19781;DHT22;10050;55.492;13.506;2022-07-05T12:50:19;21.50;99.90
19781;DHT22;10050;55.492;13.506;2022-07-05T12:53:02;22.10;99.90
19781;DHT22;10050;55.492;13.506;2022-07-05T12:55:50;22.60;99.90
19781;DHT22;10050;55.492;13.506;2022-07-05T12:58:48;22.90;99.90
19781;DHT22;10050;55.492;13.506;2022-07-05T13:01:27;23.00;99.90
19781;DHT22;10050;55.492;13.506;2022-07-05T13:04:13;22.60;99.90
19781;DHT22;10050;55.492;13.506;2022-07-05T13:09:05;23.40;99.90
19781;DHT22;10050;55.492;13.506;2022-07-05T13:11:32;23.20;99.90
19781;DHT22;10050;55.492;13.506;2022-07-05T13:13:57;23.00;99.90
19781;DHT22;10050;55.492;13.506;2022-07-05T13:16:23;23.00;99.90
19781;DHT22;10050;55.492;13.506;2022-07-05T13:18:49;23.30;99.90
19781;DHT22;10050;55.492;13.506;2022-07-05T13:21:14;23.50;99.90
19781;DHT22;10050;55.492;13.506;2022-07-05T13:23:40;23.50;99.90
19781;DHT22;10050;55.492;13.506;2022-07-05T13:26:05;23.80;99.90
19781;DHT22;10050;55.492;13.506;2022-07-05T13:28:32;23.60;99.90
19781;DHT22;10050;55.492;13.506;2022-07-05T13:30:57;23.60;99.90
19781;DHT22;10050;55.492;13.506;2022-07-05T13:33:23;23.00;99.90
19781;DHT22;10050;55.492;13.506;2022-07-05T13:35:49;22.50;99.90
19781;DHT22;10050;55.492;13.506;2022-07-05T13:38:14;22.10;99.90
19781;DHT22;10050;55.492;13.506;2022-07-05T13:40:40;21.80;99.90
19781;DHT22;10050;55.492;13.506;2022-07-05T13:43:06;21.60;99.90
19781;DHT22;10050;55.492;13.506;2022-07-05T13:45:32;21.40;99.90
19781;DHT22;10050;55.492;13.506;2022-07-05T13:47:57;21.40;99.90
19781;DHT22;10050;55.492;13.506;2022-07-05T13:50:23;21.30;99.90
19781;DHT22;10050;55.492;13.506;2022-07-05T13:52:59;21.20;99.90
19781;DHT22;10050;55.492;13.506;2022-07-05T13:55:24;21.20;99.90
19781;DHT22;10050;55.492;13.506;2022-07-05T13:57:50;21.20;99.90
19781;DHT22;10050;55.492;13.506;2022-07-05T14:00:16;21.30;99.90
19781;DHT22;10050;55.492;13.506;2022-07-05T14:02:43;21.70;99.90
19781;DHT22;10050;55.492;13.506;2022-07-05T14:05:09;21.80;99.90
19781;DHT22;10050;55.492;13.506;2022-07-05T14:07:36;21.80;99.90
19781;DHT22;10050;55.492;13.506;2022-07-05T14:10:03;21.60;99.90
19781;DHT22;10050;55.492;13.506;2022-07-05T14:12:28;21.50;99.90
19781;DHT22;10050;55.492;13.506;2022-07-05T14:14:54;21.60;99.90
19781;DHT22;10050;55.492;13.506;2022-07-05T14:17:20;22.00;99.90
19781;DHT22;10050;55.492;13.506;2022-07-05T14:19:45;21.90;99.90
19781;DHT22;10050;55.492;13.506;2022-07-05T14:22:11;21.50;99.90
19781;DHT22;10050;55.492;13.506;2022-07-05T14:24:36;21.40;99.90
19781;DHT22;10050;55.492;13.506;2022-07-05T14:27:02;21.50;99.90
19781;DHT22;10050;55.492;13.506;2022-07-05T14:29:28;21.50;99.90
19781;DHT22;10050;55.492;13.506;2022-07-05T14:31:53;21.70;99.90
19781;DHT22;10050;55.492;13.506;2022-07-05T14:34:19;22.10;99.90
19781;DHT22;10050;55.492;13.506;2022-07-05T14:36:45;22.40;99.90
19781;DHT22;10050;55.492;13.506;2022-07-05T14:39:10;22.60;99.90
19781;DHT22;10050;55.492;13.506;2022-07-05T14:41:36;22.70;99.90
19781;DHT22;10050;55.492;13.506;2022-07-05T14:44:02;22.50;99.90
19781;DHT22;10050;55.492;13.506;2022-07-05T14:46:28;22.30;99.90
19781;DHT22;10050;55.492;13.506;2022-07-05T14:48:53;22.10;99.90
19781;DHT22;10050;55.492;13.506;2022-07-05T14:51:19;21.90;99.90
19781;DHT22;10050;55.492;13.506;2022-07-05T14:53:45;21.80;99.90
19781;DHT22;10050;55.492;13.506;2022-07-05T14:56:15;21.80;99.90
19781;DHT22;10050;55.492;13.506;2022-07-05T14:58:41;21.70;99.90
19781;DHT22;10050;55.492;13.506;2022-07-05T15:01:07;21.60;99.90
19781;DHT22;10050;55.492;13.506;2022-07-05T15:03:32;21.60;99.90
19781;DHT22;10050;55.492;13.506;2022-07-05T15:05:58;21.30;99.90
19781;DHT22;10050;55.492;13.506;2022-07-05T15:08:25;21.10;99.90
19781;DHT22;10050;55.492;13.506;2022-07-05T15:10:53;20.90;99.90
19781;DHT22;10050;55.492;13.506;2022-07-05T15:13:18;21.00;99.90
19781;DHT22;10050;55.492;13.506;2022-07-05T15:15:44;21.30;99.90
19781;DHT22;10050;55.492;13.506;2022-07-05T15:18:10;21.40;99.90
19781;DHT22;10050;55.492;13.506;2022-07-05T15:20:35;21.50;99.90
19781;DHT22;10050;55.492;13.506;2022-07-05T15:23:01;21.60;99.90
19781;DHT22;10050;55.492;13.506;2022-07-05T15:25:27;21.10;99.90
19781;DHT22;10050;55.492;13.506;2022-07-05T15:27:52;20.90;99.90
19781;DHT22;10050;55.492;13.506;2022-07-05T15:30:18;20.90;99.90
19781;DHT22;10050;55.492;13.506;2022-07-05T15:32:48;20.80;99.90
19781;DHT22;10050;55.492;13.506;2022-07-05T15:35:13;20.60;99.90
19781;DHT22;10050;55.492;13.506;2022-07-05T15:37:41;20.50;99.90
19781;DHT22;10050;55.492;13.506;2022-07-05T15:40:07;20.40;99.90
19781;DHT22;10050;55.492;13.506;2022-07-05T15:42:33;20.10;99.90